sensor_id;sensor_type;location;lat;lon;timestamp;temperature;humidity
2941;DHT22;1480;51.456;6.670;2022-12-07T00:00:03;6.50;99.70
2941;DHT22;1480;51.456;6.670;2022-12-07T00:02:32;6.60;99.80
2941;DHT22;1480;51.456;6.670;2022-12-07T00:04:59;6.60;99.80
2941;DHT22;1480;51.456;6.670;2022-12-07T00:07:26;6.70;99.70
2941;DHT22;1480;51.456;6.670;2022-12-07T00:09:53;6.60;99.70
2941;DHT22;1480;51.456;6.670;2022-12-07T00:12:20;6.50;99.50
2941;DHT22;1480;51.456;6.670;2022-12-07T00:14:47;6.50;99.70
2941;DHT22;1480;51.456;6.670;2022-12-07T00:17:13;6.60;99.60
2941;DHT22;1480;51.456;6.670;2022-12-07T00:19:42;6.70;99.50
2941;DHT22;1480;51.456;6.670;2022-12-07T00:22:09;6.80;99.80
2941;DHT22;1480;51.456;6.670;2022-12-07T00:24:36;6.60;99.50
2941;DHT22;1480;51.456;6.670;2022-12-07T00:27:03;6.60;99.60
2941;DHT22;1480;51.456;6.670;2022-12-07T00:29:29;6.60;99.90
2941;DHT22;1480;51.456;6.670;2022-12-07T00:31:56;6.50;99.80
2941;DHT22;1480;51.456;6.670;2022-12-07T00:34:23;6.60;99.90
2941;DHT22;1480;51.456;6.670;2022-12-07T00:36:52;6.50;99.90
2941;DHT22;1480;51.456;6.670;2022-12-07T00:39:19;6.40;99.90
2941;DHT22;1480;51.456;6.670;2022-12-07T00:41:46;6.50;99.90
2941;DHT22;1480;51.456;6.670;2022-12-07T00:44:13;6.60;99.80
2941;DHT22;1480;51.456;6.670;2022-12-07T00:46:40;6.60;99.90
2941;DHT22;1480;51.456;6.670;2022-12-07T00:49:06;6.50;99.50
2941;DHT22;1480;51.456;6.670;2022-12-07T00:51:33;6.70;99.80
2941;DHT22;1480;51.456;6.670;2022-12-07T00:54:02;6.60;99.70
2941;DHT22;1480;51.456;6.670;2022-12-07T00:56:29;6.70;99.50
2941;DHT22;1480;51.456;6.670;2022-12-07T00:58:57;6.70;99.50
2941;DHT22;1480;51.456;6.670;2022-12-07T01:01:26;6.50;99.40
2941;DHT22;1480;51.456;6.670;2022-12-07T01:03:53;6.50;99.50
2941;DHT22;1480;51.456;6.670;2022-12-07T01:06:22;6.40;99.80
2941;DHT22;1480;51.456;6.670;2022-12-07T01:08:50;6.50;99.90
2941;DHT22;1480;51.456;6.670;2022-12-07T01:11:20;6.30;99.90
2941;DHT22;1480;51.456;6.670;2022-12-07T01:13:49;6.40;99.70
2941;DHT22;1480;51.456;6.670;2022-12-07T01:16:17;6.40;99.60
2941;DHT22;1480;51.456;6.670;2022-12-07T01:18:46;6.40;99.70
2941;DHT22;1480;51.456;6.670;2022-12-07T01:21:15;6.30;99.90
2941;DHT22;1480;51.456;6.670;2022-12-07T01:23:42;6.30;99.80
2941;DHT22;1480;51.456;6.670;2022-12-07T01:26:11;6.20;99.90
2941;DHT22;1480;51.456;6.670;2022-12-07T01:28:40;6.40;99.90
2941;DHT22;1480;51.456;6.670;2022-12-07T01:31:09;6.30;99.70
2941;DHT22;1480;51.456;6.670;2022-12-07T01:33:38;6.30;99.90
2941;DHT22;1480;51.456;6.670;2022-12-07T01:36:08;6.40;99.90
2941;DHT22;1480;51.456;6.670;2022-12-07T01:38:35;6.30;99.70
2941;DHT22;1480;51.456;6.670;2022-12-07T01:41:02;6.10;99.90
2941;DHT22;1480;51.456;6.670;2022-12-07T01:43:31;6.10;99.90
2941;DHT22;1480;51.456;6.670;2022-12-07T01:46:02;6.30;99.80
2941;DHT22;1480;51.456;6.670;2022-12-07T01:48:33;6.20;99.70
2941;DHT22;1480;51.456;6.670;2022-12-07T01:51:11;6.00;99.90
2941;DHT22;1480;51.456;6.670;2022-12-07T01:53:43;6.00;99.90
2941;DHT22;1480;51.456;6.670;2022-12-07T01:56:17;5.90;99.90
2941;DHT22;1480;51.456;6.670;2022-12-07T01:58:45;6.00;99.90
2941;DHT22;1480;51.456;6.670;2022-12-07T02:01:13;5.90;99.90
2941;DHT22;1480;51.456;6.670;2022-12-07T02:03:42;5.90;99.90
2941;DHT22;1480;51.456;6.670;2022-12-07T02:06:14;6.10;99.90
2941;DHT22;1480;51.456;6.670;2022-12-07T02:08:43;6.00;99.90
2941;DHT22;1480;51.456;6.670;2022-12-07T02:11:10;6.10;99.90
2941;DHT22;1480;51.456;6.670;2022-12-07T02:13:40;6.00;99.90
2941;DHT22;1480;51.456;6.670;2022-12-07T02:16:19;6.20;99.90
2941;DHT22;1480;51.456;6.670;2022-12-07T02:18:59;6.00;99.90
2941;DHT22;1480;51.456;6.670;2022-12-07T02:21:36;6.00;99.90
2941;DHT22;1480;51.456;6.670;2022-12-07T02:24:18;5.70;99.90
2941;DHT22;1480;51.456;6.670;2022-12-07T02:27:15;5.90;99.90
2941;DHT22;1480;51.456;6.670;2022-12-07T02:29:54;6.00;99.90
2941;DHT22;1480;51.456;6.670;2022-12-07T02:32:27;6.00;99.90
2941;DHT22;1480;51.456;6.670;2022-12-07T02:35:02;5.90;99.90
2941;DHT22;1480;51.456;6.670;2022-12-07T02:37:36;5.90;99.90
2941;DHT22;1480;51.456;6.670;2022-12-07T02:40:09;6.00;99.90
2941;DHT22;1480;51.456;6.670;2022-12-07T02:42:41;5.80;99.80
2941;DHT22;1480;51.456;6.670;2022-12-07T02:45:14;5.70;99.90
2941;DHT22;1480;51.456;6.670;2022-12-07T02:47:42;5.90;99.60
2941;DHT22;1480;51.456;6.670;2022-12-07T02:50:10;5.70;99.70
2941;DHT22;1480;51.456;6.670;2022-12-07T02:52:38;5.70;99.60
2941;DHT22;1480;51.456;6.670;2022-12-07T02:55:05;5.70;99.60
2941;DHT22;1480;51.456;6.670;2022-12-07T02:57:42;5.60;99.60
2941;DHT22;1480;51.456;6.670;2022-12-07T03:00:18;5.60;99.60
2941;DHT22;1480;51.456;6.670;2022-12-07T03:02:51;5.50;99.70
2941;DHT22;1480;51.456;6.670;2022-12-07T03:05:34;5.40;99.80
2941;DHT22;1480;51.456;6.670;2022-12-07T03:08:07;5.50;99.90
2941;DHT22;1480;51.456;6.670;2022-12-07T03:10:41;5.30;99.90
2941;DHT22;1480;51.456;6.670;2022-12-07T03:13:14;5.40;99.90
2941;DHT22;1480;51.456;6.670;2022-12-07T03:15:51;5.50;99.90
2941;DHT22;1480;51.456;6.670;2022-12-07T03:18:23;5.40;99.90
2941;DHT22;1480;51.456;6.670;2022-12-07T03:20:54;5.30;99.90
2941;DHT22;1480;51.456;6.670;2022-12-07T03:23:24;5.30;99.90
2941;DHT22;1480;51.456;6.670;2022-12-07T03:25:55;5.30;99.90
2941;DHT22;1480;51.456;6.670;2022-12-07T03:28:26;5.40;99.90
2941;DHT22;1480;51.456;6.670;2022-12-07T03:30:57;5.20;99.90
2941;DHT22;1480;51.456;6.670;2022-12-07T03:33:30;5.20;99.70
2941;DHT22;1480;51.456;6.670;2022-12-07T03:36:02;5.10;99.40
2941;DHT22;1480;51.456;6.670;2022-12-07T03:38:34;5.10;99.90
2941;DHT22;1480;51.456;6.670;2022-12-07T03:41:05;4.90;99.90
2941;DHT22;1480;51.456;6.670;2022-12-07T03:43:33;4.90;99.90
2941;DHT22;1480;51.456;6.670;2022-12-07T03:46:12;5.00;99.90
2941;DHT22;1480;51.456;6.670;2022-12-07T03:48:48;5.00;99.90
2941;DHT22;1480;51.456;6.670;2022-12-07T03:51:21;5.10;99.90
2941;DHT22;1480;51.456;6.670;2022-12-07T03:53:52;5.10;99.90
2941;DHT22;1480;51.456;6.670;2022-12-07T03:56:22;5.40;99.90
2941;DHT22;1480;51.456;6.670;2022-12-07T03:58:50;5.50;99.90
2941;DHT22;1480;51.456;6.670;2022-12-07T04:01:20;5.40;99.90
2941;DHT22;1480;51.456;6.670;2022-12-07T04:03:47;5.40;99.90
2941;DHT22;1480;51.456;6.670;2022-12-07T04:06:14;5.60;99.90
2941;DHT22;1480;51.456;6.670;2022-12-07T04:08:41;5.60;99.90
2941;DHT22;1480;51.456;6.670;2022-12-07T04:11:08;5.50;99.90
2941;DHT22;1480;51.456;6.670;2022-12-07T04:13:35;5.30;99.90
2941;DHT22;1480;51.456;6.670;2022-12-07T04:16:23;5.30;99.90
2941;DHT22;1480;51.456;6.670;2022-12-07T04:18:50;5.40;99.90
2941;DHT22;1480;51.456;6.670;2022-12-07T04:21:17;5.30;99.90
2941;DHT22;1480;51.456;6.670;2022-12-07T04:23:44;5.30;99.90
2941;DHT22;1480;51.456;6.670;2022-12-07T04:26:10;5.20;99.60
2941;DHT22;1480;51.456;6.670;2022-12-07T04:28:37;5.20;99.90
2941;DHT22;1480;51.456;6.670;2022-12-07T04:31:04;5.10;99.90
2941;DHT22;1480;51.456;6.670;2022-12-07T04:33:33;5.20;99.90
2941;DHT22;1480;51.456;6.670;2022-12-07T04:36:00;5.20;99.90
2941;DHT22;1480;51.456;6.670;2022-12-07T04:38:27;5.30;99.90
2941;DHT22;1480;51.456;6.670;2022-12-07T04:40:53;5.10;99.90
2941;DHT22;1480;51.456;6.670;2022-12-07T04:43:20;5.20;99.90
2941;DHT22;1480;51.456;6.670;2022-12-07T04:45:48;5.30;99.90
2941;DHT22;1480;51.456;6.670;2022-12-07T04:48:16;5.20;99.90
2941;DHT22;1480;51.456;6.670;2022-12-07T04:50:44;5.20;99.90
2941;DHT22;1480;51.456;6.670;2022-12-07T04:53:14;5.30;99.30
2941;DHT22;1480;51.456;6.670;2022-12-07T04:55:41;5.30;99.60
2941;DHT22;1480;51.456;6.670;2022-12-07T04:58:08;5.20;99.60
2941;DHT22;1480;51.456;6.670;2022-12-07T05:00:35;5.30;99.10
2941;DHT22;1480;51.456;6.670;2022-12-07T05:03:01;5.30;99.20
2941;DHT22;1480;51.456;6.670;2022-12-07T05:05:28;5.50;99.10
2941;DHT22;1480;51.456;6.670;2022-12-07T05:07:57;5.30;99.30
2941;DHT22;1480;51.456;6.670;2022-12-07T05:10:24;5.50;99.50
2941;DHT22;1480;51.456;6.670;2022-12-07T05:12:51;5.50;99.70
2941;DHT22;1480;51.456;6.670;2022-12-07T05:15:17;5.60;99.70
2941;DHT22;1480;51.456;6.670;2022-12-07T05:17:44;5.50;98.70
2941;DHT22;1480;51.456;6.670;2022-12-07T05:20:12;5.60;99.30
2941;DHT22;1480;51.456;6.670;2022-12-07T05:22:38;5.70;98.60
2941;DHT22;1480;51.456;6.670;2022-12-07T05:25:08;5.50;98.60
2941;DHT22;1480;51.456;6.670;2022-12-07T05:27:35;5.50;98.60
2941;DHT22;1480;51.456;6.670;2022-12-07T05:30:02;5.50;98.70
2941;DHT22;1480;51.456;6.670;2022-12-07T05:32:29;5.40;98.70
2941;DHT22;1480;51.456;6.670;2022-12-07T05:34:56;5.40;98.70
2941;DHT22;1480;51.456;6.670;2022-12-07T05:37:23;5.50;99.00
2941;DHT22;1480;51.456;6.670;2022-12-07T05:39:49;5.30;98.70
2941;DHT22;1480;51.456;6.670;2022-12-07T05:42:18;5.20;98.60
2941;DHT22;1480;51.456;6.670;2022-12-07T05:44:46;5.40;99.10
2941;DHT22;1480;51.456;6.670;2022-12-07T05:47:14;5.50;99.50
2941;DHT22;1480;51.456;6.670;2022-12-07T05:49:41;5.40;99.20
2941;DHT22;1480;51.456;6.670;2022-12-07T05:52:08;5.40;99.00
2941;DHT22;1480;51.456;6.670;2022-12-07T05:54:35;5.50;99.20
2941;DHT22;1480;51.456;6.670;2022-12-07T05:57:02;5.70;98.60
2941;DHT22;1480;51.456;6.670;2022-12-07T05:59:30;5.60;98.00
2941;DHT22;1480;51.456;6.670;2022-12-07T06:01:58;5.70;98.30
2941;DHT22;1480;51.456;6.670;2022-12-07T06:04:26;5.50;97.90
2941;DHT22;1480;51.456;6.670;2022-12-07T06:06:54;5.60;97.30
2941;DHT22;1480;51.456;6.670;2022-12-07T06:09:22;5.50;97.50
2941;DHT22;1480;51.456;6.670;2022-12-07T06:11:50;5.50;97.40
2941;DHT22;1480;51.456;6.670;2022-12-07T06:14:36;5.50;97.20
2941;DHT22;1480;51.456;6.670;2022-12-07T06:17:12;5.30;96.90
2941;DHT22;1480;51.456;6.670;2022-12-07T06:19:40;5.20;97.30
2941;DHT22;1480;51.456;6.670;2022-12-07T06:22:07;5.20;97.70
2941;DHT22;1480;51.456;6.670;2022-12-07T06:24:35;5.20;97.80
2941;DHT22;1480;51.456;6.670;2022-12-07T06:27:02;5.40;98.10
2941;DHT22;1480;51.456;6.670;2022-12-07T06:29:29;5.40;98.20
2941;DHT22;1480;51.456;6.670;2022-12-07T06:31:57;5.40;98.20
2941;DHT22;1480;51.456;6.670;2022-12-07T06:34:26;5.60;98.20
2941;DHT22;1480;51.456;6.670;2022-12-07T06:36:53;5.40;97.80
2941;DHT22;1480;51.456;6.670;2022-12-07T06:39:23;5.40;97.70
2941;DHT22;1480;51.456;6.670;2022-12-07T06:41:51;5.30;97.90
2941;DHT22;1480;51.456;6.670;2022-12-07T06:44:20;5.20;97.70
2941;DHT22;1480;51.456;6.670;2022-12-07T06:46:47;5.10;98.00
2941;DHT22;1480;51.456;6.670;2022-12-07T06:49:16;5.00;97.90
2941;DHT22;1480;51.456;6.670;2022-12-07T06:51:43;5.30;97.90
2941;DHT22;1480;51.456;6.670;2022-12-07T06:54:11;5.10;98.10
2941;DHT22;1480;51.456;6.670;2022-12-07T06:56:38;5.20;98.30
2941;DHT22;1480;51.456;6.670;2022-12-07T06:59:06;5.20;98.50
2941;DHT22;1480;51.456;6.670;2022-12-07T07:01:34;5.20;98.10
2941;DHT22;1480;51.456;6.670;2022-12-07T07:04:01;5.20;98.10
2941;DHT22;1480;51.456;6.670;2022-12-07T07:06:29;5.30;97.90
2941;DHT22;1480;51.456;6.670;2022-12-07T07:08:56;5.20;97.70
2941;DHT22;1480;51.456;6.670;2022-12-07T07:11:23;5.20;97.80
2941;DHT22;1480;51.456;6.670;2022-12-07T07:13:50;5.30;97.70
2941;DHT22;1480;51.456;6.670;2022-12-07T07:16:17;5.00;97.30
2941;DHT22;1480;51.456;6.670;2022-12-07T07:18:44;5.00;97.80
2941;DHT22;1480;51.456;6.670;2022-12-07T07:21:11;5.00;97.70
2941;DHT22;1480;51.456;6.670;2022-12-07T07:23:39;4.60;98.10
2941;DHT22;1480;51.456;6.670;2022-12-07T07:26:06;4.80;98.20
2941;DHT22;1480;51.456;6.670;2022-12-07T07:28:33;4.90;98.50
2941;DHT22;1480;51.456;6.670;2022-12-07T07:31:00;4.60;98.40
2941;DHT22;1480;51.456;6.670;2022-12-07T07:33:27;4.50;99.20
2941;DHT22;1480;51.456;6.670;2022-12-07T07:35:54;4.60;99.50
2941;DHT22;1480;51.456;6.670;2022-12-07T07:38:20;4.80;99.20
2941;DHT22;1480;51.456;6.670;2022-12-07T07:40:49;4.80;99.30
2941;DHT22;1480;51.456;6.670;2022-12-07T07:43:16;4.80;98.80
2941;DHT22;1480;51.456;6.670;2022-12-07T07:45:44;4.80;98.80
2941;DHT22;1480;51.456;6.670;2022-12-07T07:48:11;4.70;98.80
2941;DHT22;1480;51.456;6.670;2022-12-07T07:50:38;5.00;98.90
2941;DHT22;1480;51.456;6.670;2022-12-07T07:53:05;4.70;98.40
2941;DHT22;1480;51.456;6.670;2022-12-07T07:55:31;4.80;98.10
2941;DHT22;1480;51.456;6.670;2022-12-07T07:58:00;4.70;99.00
2941;DHT22;1480;51.456;6.670;2022-12-07T08:00:27;4.40;98.80
2941;DHT22;1480;51.456;6.670;2022-12-07T08:02:54;4.50;99.30
2941;DHT22;1480;51.456;6.670;2022-12-07T08:05:21;4.60;98.90
2941;DHT22;1480;51.456;6.670;2022-12-07T08:07:48;4.40;99.40
2941;DHT22;1480;51.456;6.670;2022-12-07T08:10:15;4.30;99.00
2941;DHT22;1480;51.456;6.670;2022-12-07T08:12:43;4.50;99.30
2941;DHT22;1480;51.456;6.670;2022-12-07T08:15:30;4.70;99.80
2941;DHT22;1480;51.456;6.670;2022-12-07T08:17:57;4.70;99.70
2941;DHT22;1480;51.456;6.670;2022-12-07T08:20:24;4.70;99.90
2941;DHT22;1480;51.456;6.670;2022-12-07T08:22:51;4.80;99.90
2941;DHT22;1480;51.456;6.670;2022-12-07T08:25:18;4.90;99.60
2941;DHT22;1480;51.456;6.670;2022-12-07T08:27:45;4.90;99.80
2941;DHT22;1480;51.456;6.670;2022-12-07T08:30:12;4.80;98.80
2941;DHT22;1480;51.456;6.670;2022-12-07T08:32:41;4.70;98.60
2941;DHT22;1480;51.456;6.670;2022-12-07T08:35:08;4.70;99.40
2941;DHT22;1480;51.456;6.670;2022-12-07T08:37:36;4.80;99.90
2941;DHT22;1480;51.456;6.670;2022-12-07T08:40:03;4.90;99.90
2941;DHT22;1480;51.456;6.670;2022-12-07T08:42:30;4.80;99.50
2941;DHT22;1480;51.456;6.670;2022-12-07T08:45:05;5.10;99.90
2941;DHT22;1480;51.456;6.670;2022-12-07T08:47:32;5.10;99.90
2941;DHT22;1480;51.456;6.670;2022-12-07T08:50:01;5.10;99.90
2941;DHT22;1480;51.456;6.670;2022-12-07T08:52:29;5.40;99.40
2941;DHT22;1480;51.456;6.670;2022-12-07T08:54:56;5.30;99.60
2941;DHT22;1480;51.456;6.670;2022-12-07T08:57:24;5.30;99.60
2941;DHT22;1480;51.456;6.670;2022-12-07T08:59:51;5.50;99.90
2941;DHT22;1480;51.456;6.670;2022-12-07T09:02:18;5.60;99.50
2941;DHT22;1480;51.456;6.670;2022-12-07T09:04:45;5.80;99.10
2941;DHT22;1480;51.456;6.670;2022-12-07T09:07:13;5.90;98.30
2941;DHT22;1480;51.456;6.670;2022-12-07T09:09:40;6.10;98.00
2941;DHT22;1480;51.456;6.670;2022-12-07T09:12:07;6.20;97.30
2941;DHT22;1480;51.456;6.670;2022-12-07T09:14:36;6.50;96.60
2941;DHT22;1480;51.456;6.670;2022-12-07T09:17:06;6.50;96.20
2941;DHT22;1480;51.456;6.670;2022-12-07T09:19:33;6.60;95.10
2941;DHT22;1480;51.456;6.670;2022-12-07T09:22:00;6.70;94.30
2941;DHT22;1480;51.456;6.670;2022-12-07T09:24:29;6.40;93.90
2941;DHT22;1480;51.456;6.670;2022-12-07T09:26:56;6.20;93.70
2941;DHT22;1480;51.456;6.670;2022-12-07T09:29:23;6.30;94.00
2941;DHT22;1480;51.456;6.670;2022-12-07T09:31:50;6.30;94.00
2941;DHT22;1480;51.456;6.670;2022-12-07T09:34:17;6.20;95.10
2941;DHT22;1480;51.456;6.670;2022-12-07T09:36:44;6.30;94.90
2941;DHT22;1480;51.456;6.670;2022-12-07T09:39:11;6.40;94.90
2941;DHT22;1480;51.456;6.670;2022-12-07T09:41:42;6.40;94.60
2941;DHT22;1480;51.456;6.670;2022-12-07T09:44:12;6.40;95.60
2941;DHT22;1480;51.456;6.670;2022-12-07T09:46:42;6.60;95.20
2941;DHT22;1480;51.456;6.670;2022-12-07T09:49:12;6.80;94.90
2941;DHT22;1480;51.456;6.670;2022-12-07T09:51:40;6.80;94.00
2941;DHT22;1480;51.456;6.670;2022-12-07T09:54:08;6.90;93.10
2941;DHT22;1480;51.456;6.670;2022-12-07T09:56:40;6.90;93.50
2941;DHT22;1480;51.456;6.670;2022-12-07T09:59:13;6.90;92.70
2941;DHT22;1480;51.456;6.670;2022-12-07T10:01:43;7.00;92.60
2941;DHT22;1480;51.456;6.670;2022-12-07T10:04:13;6.80;92.70
2941;DHT22;1480;51.456;6.670;2022-12-07T10:06:42;7.00;93.60
2941;DHT22;1480;51.456;6.670;2022-12-07T10:09:10;7.10;93.00
2941;DHT22;1480;51.456;6.670;2022-12-07T10:12:01;7.20;92.50
2941;DHT22;1480;51.456;6.670;2022-12-07T10:14:31;7.50;91.50
2941;DHT22;1480;51.456;6.670;2022-12-07T10:16:58;7.70;91.50
2941;DHT22;1480;51.456;6.670;2022-12-07T10:19:27;7.80;90.90
2941;DHT22;1480;51.456;6.670;2022-12-07T10:22:09;8.00;91.00
2941;DHT22;1480;51.456;6.670;2022-12-07T10:24:37;8.30;89.70
2941;DHT22;1480;51.456;6.670;2022-12-07T10:27:18;8.40;87.70
2941;DHT22;1480;51.456;6.670;2022-12-07T10:29:51;8.50;88.00
2941;DHT22;1480;51.456;6.670;2022-12-07T10:32:31;8.60;88.40
2941;DHT22;1480;51.456;6.670;2022-12-07T10:35:21;8.40;87.40
2941;DHT22;1480;51.456;6.670;2022-12-07T10:37:49;8.10;86.60
2941;DHT22;1480;51.456;6.670;2022-12-07T10:40:26;8.10;88.00
2941;DHT22;1480;51.456;6.670;2022-12-07T10:43:04;8.10;88.80
2941;DHT22;1480;51.456;6.670;2022-12-07T10:45:32;8.20;88.60
2941;DHT22;1480;51.456;6.670;2022-12-07T10:48:04;8.20;87.90
2941;DHT22;1480;51.456;6.670;2022-12-07T10:50:55;8.30;86.90
2941;DHT22;1480;51.456;6.670;2022-12-07T10:53:32;8.30;87.60
2941;DHT22;1480;51.456;6.670;2022-12-07T10:56:33;8.30;87.50
2941;DHT22;1480;51.456;6.670;2022-12-07T10:59:20;8.40;86.90
2941;DHT22;1480;51.456;6.670;2022-12-07T11:01:54;8.00;86.10
2941;DHT22;1480;51.456;6.670;2022-12-07T11:04:30;8.30;86.60
2941;DHT22;1480;51.456;6.670;2022-12-07T11:07:03;8.30;86.90
2941;DHT22;1480;51.456;6.670;2022-12-07T11:09:55;8.20;87.80
2941;DHT22;1480;51.456;6.670;2022-12-07T11:12:33;8.20;87.20
2941;DHT22;1480;51.456;6.670;2022-12-07T11:15:10;8.10;87.30
2941;DHT22;1480;51.456;6.670;2022-12-07T11:17:48;8.10;86.70
2941;DHT22;1480;51.456;6.670;2022-12-07T11:20:29;8.00;87.10
2941;DHT22;1480;51.456;6.670;2022-12-07T11:23:02;8.00;87.00
2941;DHT22;1480;51.456;6.670;2022-12-07T11:25:32;8.10;86.60
2941;DHT22;1480;51.456;6.670;2022-12-07T11:28:11;8.00;87.00
2941;DHT22;1480;51.456;6.670;2022-12-07T11:30:55;8.00;87.20
2941;DHT22;1480;51.456;6.670;2022-12-07T11:33:29;7.90;87.60
2941;DHT22;1480;51.456;6.670;2022-12-07T11:36:07;8.00;87.30
2941;DHT22;1480;51.456;6.670;2022-12-07T11:38:42;8.00;87.20
2941;DHT22;1480;51.456;6.670;2022-12-07T11:41:10;8.10;86.90
2941;DHT22;1480;51.456;6.670;2022-12-07T11:43:51;8.00;87.60
2941;DHT22;1480;51.456;6.670;2022-12-07T11:46:24;7.90;87.50
2941;DHT22;1480;51.456;6.670;2022-12-07T11:48:58;7.90;87.40
2941;DHT22;1480;51.456;6.670;2022-12-07T11:51:30;7.90;87.60
2941;DHT22;1480;51.456;6.670;2022-12-07T11:54:02;8.00;88.00
2941;DHT22;1480;51.456;6.670;2022-12-07T11:56:30;7.80;87.30
2941;DHT22;1480;51.456;6.670;2022-12-07T11:59:08;7.80;87.80
2941;DHT22;1480;51.456;6.670;2022-12-07T12:01:47;7.90;87.40
2941;DHT22;1480;51.456;6.670;2022-12-07T12:04:30;8.20;87.80
2941;DHT22;1480;51.456;6.670;2022-12-07T12:07:00;8.00;87.00
2941;DHT22;1480;51.456;6.670;2022-12-07T12:09:32;8.10;86.70
2941;DHT22;1480;51.456;6.670;2022-12-07T12:12:17;8.00;87.00
2941;DHT22;1480;51.456;6.670;2022-12-07T12:14:56;8.10;86.60
2941;DHT22;1480;51.456;6.670;2022-12-07T12:17:41;8.10;87.50
2941;DHT22;1480;51.456;6.670;2022-12-07T12:20:20;8.10;87.50
2941;DHT22;1480;51.456;6.670;2022-12-07T12:22:52;8.20;87.20
2941;DHT22;1480;51.456;6.670;2022-12-07T12:25:22;8.30;87.10
2941;DHT22;1480;51.456;6.670;2022-12-07T12:27:52;8.40;86.80
2941;DHT22;1480;51.456;6.670;2022-12-07T12:30:33;8.40;87.00
2941;DHT22;1480;51.456;6.670;2022-12-07T12:33:12;8.30;86.60
2941;DHT22;1480;51.456;6.670;2022-12-07T12:35:39;8.20;86.40
2941;DHT22;1480;51.456;6.670;2022-12-07T12:38:31;8.40;85.80
2941;DHT22;1480;51.456;6.670;2022-12-07T12:40:59;8.40;85.10
2941;DHT22;1480;51.456;6.670;2022-12-07T12:43:50;8.40;85.30
2941;DHT22;1480;51.456;6.670;2022-12-07T12:46:36;8.30;85.30
2941;DHT22;1480;51.456;6.670;2022-12-07T12:49:34;8.50;85.80
2941;DHT22;1480;51.456;6.670;2022-12-07T12:54:59;8.50;85.80
2941;DHT22;1480;51.456;6.670;2022-12-07T12:57:28;8.40;85.90
2941;DHT22;1480;51.456;6.670;2022-12-07T12:59:57;8.30;85.90
2941;DHT22;1480;51.456;6.670;2022-12-07T13:02:26;8.50;85.60
2941;DHT22;1480;51.456;6.670;2022-12-07T13:04:57;8.50;85.30
2941;DHT22;1480;51.456;6.670;2022-12-07T13:07:54;8.20;85.60
2941;DHT22;1480;51.456;6.670;2022-12-07T13:13:40;8.40;85.40
2941;DHT22;1480;51.456;6.670;2022-12-07T13:22:53;8.30;86.20
2941;DHT22;1480;51.456;6.670;2022-12-07T13:25:29;8.20;85.90
2941;DHT22;1480;51.456;6.670;2022-12-07T13:28:00;8.40;86.10
2941;DHT22;1480;51.456;6.670;2022-12-07T13:30:29;8.40;85.30
2941;DHT22;1480;51.456;6.670;2022-12-07T13:32:58;8.20;85.50
2941;DHT22;1480;51.456;6.670;2022-12-07T13:35:33;8.40;85.50
2941;DHT22;1480;51.456;6.670;2022-12-07T13:38:05;8.30;85.70
2941;DHT22;1480;51.456;6.670;2022-12-07T13:40:32;8.00;85.90
2941;DHT22;1480;51.456;6.670;2022-12-07T13:43:01;8.20;86.00
2941;DHT22;1480;51.456;6.670;2022-12-07T13:45:30;8.20;85.80
2941;DHT22;1480;51.456;6.670;2022-12-07T13:48:21;8.10;86.20
2941;DHT22;1480;51.456;6.670;2022-12-07T13:50:55;8.10;86.10
2941;DHT22;1480;51.456;6.670;2022-12-07T13:53:24;8.10;86.30
2941;DHT22;1480;51.456;6.670;2022-12-07T13:55:53;8.20;86.60
2941;DHT22;1480;51.456;6.670;2022-12-07T13:58:22;8.00;86.40
2941;DHT22;1480;51.456;6.670;2022-12-07T14:00:49;7.90;86.00
2941;DHT22;1480;51.456;6.670;2022-12-07T14:03:29;8.10;86.30
2941;DHT22;1480;51.456;6.670;2022-12-07T14:06:24;8.10;86.20
2941;DHT22;1480;51.456;6.670;2022-12-07T14:09:18;8.00;85.70
2941;DHT22;1480;51.456;6.670;2022-12-07T14:11:46;8.20;85.80
2941;DHT22;1480;51.456;6.670;2022-12-07T14:14:18;7.80;85.50
2941;DHT22;1480;51.456;6.670;2022-12-07T14:17:00;7.90;85.80
2941;DHT22;1480;51.456;6.670;2022-12-07T14:19:46;7.70;86.50
2941;DHT22;1480;51.456;6.670;2022-12-07T14:22:26;7.60;86.80
2941;DHT22;1480;51.456;6.670;2022-12-07T14:25:14;7.40;87.40
2941;DHT22;1480;51.456;6.670;2022-12-07T14:27:52;7.30;87.50
2941;DHT22;1480;51.456;6.670;2022-12-07T14:30:22;7.20;88.20
2941;DHT22;1480;51.456;6.670;2022-12-07T14:32:52;7.30;88.20
2941;DHT22;1480;51.456;6.670;2022-12-07T14:35:19;7.00;88.40
2941;DHT22;1480;51.456;6.670;2022-12-07T14:37:48;7.20;89.00
2941;DHT22;1480;51.456;6.670;2022-12-07T14:40:19;7.10;89.10
2941;DHT22;1480;51.456;6.670;2022-12-07T14:42:47;6.90;88.90
2941;DHT22;1480;51.456;6.670;2022-12-07T14:45:17;7.00;88.90
2941;DHT22;1480;51.456;6.670;2022-12-07T14:47:45;7.00;89.20
2941;DHT22;1480;51.456;6.670;2022-12-07T14:50:13;6.80;89.00
2941;DHT22;1480;51.456;6.670;2022-12-07T14:52:40;6.80;89.70
2941;DHT22;1480;51.456;6.670;2022-12-07T14:55:14;6.60;89.90
2941;DHT22;1480;51.456;6.670;2022-12-07T14:57:42;6.60;90.10
2941;DHT22;1480;51.456;6.670;2022-12-07T15:00:14;6.60;90.00
2941;DHT22;1480;51.456;6.670;2022-12-07T15:02:42;6.50;90.90
2941;DHT22;1480;51.456;6.670;2022-12-07T15:05:10;6.30;90.80
2941;DHT22;1480;51.456;6.670;2022-12-07T15:07:37;6.50;91.20
2941;DHT22;1480;51.456;6.670;2022-12-07T15:10:05;6.20;91.50
2941;DHT22;1480;51.456;6.670;2022-12-07T15:12:32;6.40;91.40
2941;DHT22;1480;51.456;6.670;2022-12-07T15:15:00;6.40;91.80
2941;DHT22;1480;51.456;6.670;2022-12-07T15:17:28;6.40;91.90
2941;DHT22;1480;51.456;6.670;2022-12-07T15:19:55;6.30;92.20
2941;DHT22;1480;51.456;6.670;2022-12-07T15:22:22;6.30;92.20
2941;DHT22;1480;51.456;6.670;2022-12-07T15:24:49;6.10;92.40
2941;DHT22;1480;51.456;6.670;2022-12-07T15:27:16;6.30;92.00
2941;DHT22;1480;51.456;6.670;2022-12-07T15:29:42;6.20;92.50
2941;DHT22;1480;51.456;6.670;2022-12-07T15:32:11;6.40;92.10
2941;DHT22;1480;51.456;6.670;2022-12-07T15:34:38;6.10;92.40
2941;DHT22;1480;51.456;6.670;2022-12-07T15:37:05;6.20;92.00
2941;DHT22;1480;51.456;6.670;2022-12-07T15:39:32;6.20;92.30
2941;DHT22;1480;51.456;6.670;2022-12-07T15:41:59;6.10;92.80
2941;DHT22;1480;51.456;6.670;2022-12-07T15:44:26;6.40;92.80
2941;DHT22;1480;51.456;6.670;2022-12-07T15:47:12;6.20;92.50
2941;DHT22;1480;51.456;6.670;2022-12-07T15:49:38;6.20;92.50
2941;DHT22;1480;51.456;6.670;2022-12-07T15:52:05;6.40;92.50
2941;DHT22;1480;51.456;6.670;2022-12-07T15:54:32;6.40;92.60
2941;DHT22;1480;51.456;6.670;2022-12-07T15:57:00;6.40;92.60
2941;DHT22;1480;51.456;6.670;2022-12-07T15:59:28;6.40;92.60
2941;DHT22;1480;51.456;6.670;2022-12-07T16:01:55;6.50;92.80
2941;DHT22;1480;51.456;6.670;2022-12-07T16:04:24;6.50;92.50
2941;DHT22;1480;51.456;6.670;2022-12-07T16:06:53;6.70;92.20
2941;DHT22;1480;51.456;6.670;2022-12-07T16:09:20;6.60;92.10
2941;DHT22;1480;51.456;6.670;2022-12-07T16:11:47;6.50;91.80
2941;DHT22;1480;51.456;6.670;2022-12-07T16:14:15;6.70;91.50
2941;DHT22;1480;51.456;6.670;2022-12-07T16:16:42;6.70;91.40
2941;DHT22;1480;51.456;6.670;2022-12-07T16:19:09;6.70;91.10
2941;DHT22;1480;51.456;6.670;2022-12-07T16:21:38;6.80;91.10
2941;DHT22;1480;51.456;6.670;2022-12-07T16:24:06;6.70;90.80
2941;DHT22;1480;51.456;6.670;2022-12-07T16:26:33;6.60;90.30
2941;DHT22;1480;51.456;6.670;2022-12-07T16:29:00;6.70;89.90
2941;DHT22;1480;51.456;6.670;2022-12-07T16:31:28;6.50;90.20
2941;DHT22;1480;51.456;6.670;2022-12-07T16:33:56;6.70;90.40
2941;DHT22;1480;51.456;6.670;2022-12-07T16:36:24;6.60;90.20
2941;DHT22;1480;51.456;6.670;2022-12-07T16:38:54;6.70;90.10
2941;DHT22;1480;51.456;6.670;2022-12-07T16:41:21;6.60;90.40
2941;DHT22;1480;51.456;6.670;2022-12-07T16:43:49;6.50;90.30
2941;DHT22;1480;51.456;6.670;2022-12-07T16:46:15;6.80;90.20
2941;DHT22;1480;51.456;6.670;2022-12-07T16:48:43;6.70;90.00
2941;DHT22;1480;51.456;6.670;2022-12-07T16:51:12;6.80;90.20